createdAt,value
2022-11-29T00:00:14.964Z,1.08
2022-11-29T00:01:16.190Z,1.05
2022-11-29T00:02:12.920Z,1.07
2022-11-29T00:03:09.784Z,0.93
2022-11-29T00:04:06.895Z,1.09
2022-11-29T00:05:03.762Z,0.69
2022-11-29T00:06:09.130Z,1.13
2022-11-29T00:07:05.728Z,1.17
2022-11-29T00:08:02.692Z,0.67
2022-11-29T00:09:01.584Z,1.03
2022-11-29T00:09:58.190Z,1.22
2022-11-29T00:10:54.779Z,1.11
2022-11-29T00:12:09.747Z,0.78
2022-11-29T00:13:06.364Z,0.79
2022-11-29T00:14:03.791Z,0.54
2022-11-29T00:15:00.401Z,1.04
2022-11-29T00:16:05.686Z,1.10
2022-11-29T00:17:04.382Z,0.95
2022-11-29T00:18:01.051Z,0.77
2022-11-29T00:18:57.661Z,0.93
2022-11-29T00:19:54.254Z,0.70
2022-11-29T00:20:50.892Z,0.71
2022-11-29T00:21:47.636Z,0.97
2022-11-29T00:22:44.185Z,0.89
2022-11-29T00:23:40.818Z,0.69
2022-11-29T00:24:37.584Z,0.80
2022-11-29T00:25:34.249Z,0.07
2022-11-29T00:26:30.958Z,0.81
2022-11-29T00:27:27.598Z,0.68
2022-11-29T00:28:24.254Z,0.80
2022-11-29T00:29:20.839Z,1.04
2022-11-29T00:30:19.086Z,0.62
2022-11-29T00:31:19.392Z,0.77
2022-11-29T00:32:16.055Z,0.50
2022-11-29T00:33:12.691Z,0.81
2022-11-29T00:34:10.782Z,0.92
2022-11-29T00:35:09.816Z,0.90
2022-11-29T00:36:06.978Z,0.76
2022-11-29T00:37:03.606Z,0.76
2022-11-29T00:38:00.489Z,0.90
2022-11-29T00:38:57.105Z,0.87
2022-11-29T00:39:53.671Z,0.80
2022-11-29T00:40:53.248Z,0.84
2022-11-29T00:41:49.813Z,0.76
2022-11-29T00:42:46.471Z,0.68
2022-11-29T00:43:43.162Z,0.68
2022-11-29T00:44:39.761Z,0.17
2022-11-29T00:45:36.423Z,0.65
2022-11-29T00:46:33.117Z,0.77
2022-11-29T00:47:29.713Z,0.87
2022-11-29T00:48:26.569Z,0.54
2022-11-29T00:49:23.150Z,0.76
2022-11-29T00:50:19.787Z,0.75
2022-11-29T00:51:16.457Z,0.63
2022-11-29T00:52:13.090Z,0.86
2022-11-29T00:53:09.655Z,0.50
2022-11-29T00:54:06.384Z,0.56
2022-11-29T00:55:03.074Z,0.37
2022-11-29T00:55:59.881Z,0.61
2022-11-29T00:56:56.530Z,0.75
2022-11-29T00:57:53.132Z,0.90
2022-11-29T00:58:49.742Z,0.54
2022-11-29T00:59:46.304Z,0.87
2022-11-29T01:00:43.019Z,0.38
2022-11-29T01:01:39.830Z,0.67
2022-11-29T01:02:36.538Z,0.68
2022-11-29T01:03:33.281Z,0.57
2022-11-29T01:04:30.183Z,0.55
2022-11-29T01:05:26.852Z,0.65
2022-11-29T01:06:23.490Z,0.18
2022-11-29T01:07:20.142Z,0.86
2022-11-29T01:08:17.453Z,0.91
2022-11-29T01:09:14.049Z,0.83
2022-11-29T01:10:10.639Z,0.87
2022-11-29T01:11:19.406Z,0.72
2022-11-29T01:12:16.003Z,0.89
2022-11-29T01:13:14.170Z,0.76
2022-11-29T01:14:12.209Z,0.63
2022-11-29T01:15:09.587Z,0.65
2022-11-29T01:16:09.832Z,0.30
2022-11-29T01:17:06.529Z,0.73
2022-11-29T01:18:03.338Z,0.60
2022-11-29T01:19:00.617Z,0.81
2022-11-29T01:19:57.218Z,0.63
2022-11-29T01:21:02.958Z,0.75
2022-11-29T01:21:59.559Z,0.60
2022-11-29T01:22:56.175Z,0.74
2022-11-29T01:23:54.048Z,0.72
2022-11-29T01:24:50.612Z,0.34
2022-11-29T01:25:56.171Z,0.69
2022-11-29T01:26:52.712Z,0.71
2022-11-29T01:27:49.290Z,0.61
2022-11-29T01:28:47.707Z,0.43
2022-11-29T01:29:44.331Z,0.30
2022-11-29T01:30:41.047Z,0.26
2022-11-29T01:31:37.738Z,0.73
2022-11-29T01:32:35.163Z,0.72
2022-11-29T01:33:31.755Z,0.69
2022-11-29T01:34:28.387Z,0.81
2022-11-29T01:35:25.007Z,0.87
2022-11-29T01:36:22.159Z,0.89
2022-11-29T01:37:18.945Z,0.83
2022-11-29T01:38:15.610Z,0.68
2022-11-29T01:39:12.194Z,0.77
2022-11-29T01:40:09.044Z,0.42
2022-11-29T01:41:10.044Z,0.45
2022-11-29T01:42:06.662Z,0.76
2022-11-29T01:43:03.299Z,0.75
2022-11-29T01:44:11.835Z,0.93
2022-11-29T01:45:28.711Z,0.93
2022-11-29T01:46:26.730Z,0.92
2022-11-29T01:47:23.554Z,0.72
2022-11-29T01:48:24.291Z,0.88
2022-11-29T01:49:23.598Z,0.72
2022-11-29T01:50:21.035Z,0.52
2022-11-29T01:51:18.300Z,0.82
2022-11-29T01:52:19.746Z,0.92
2022-11-29T01:53:16.914Z,0.96
2022-11-29T01:54:14.752Z,0.97
2022-11-29T01:55:11.606Z,0.73
2022-11-29T01:56:09.386Z,0.74
2022-11-29T01:57:08.014Z,0.87
2022-11-29T01:58:06.443Z,0.58
2022-11-29T01:59:11.367Z,0.57
2022-11-29T02:00:15.811Z,0.69
2022-11-29T02:01:12.946Z,0.55
2022-11-29T02:02:15.360Z,0.45
2022-11-29T02:03:13.236Z,0.68
2022-11-29T02:04:10.505Z,0.37
2022-11-29T02:05:08.059Z,0.68
2022-11-29T02:06:06.335Z,0.52
2022-11-29T02:07:03.468Z,0.75
2022-11-29T02:08:01.320Z,0.57
2022-11-29T02:08:58.305Z,0.25
2022-11-29T02:09:54.985Z,0.55
2022-11-29T02:11:15.502Z,0.17
2022-11-29T02:12:20.058Z,0.64
2022-11-29T02:13:33.976Z,0.72
2022-11-29T02:14:36.374Z,0.55
2022-11-29T02:15:55.666Z,0.74
2022-11-29T02:17:10.985Z,0.22
2022-11-29T02:18:33.447Z,0.46
2022-11-29T02:19:57.751Z,0.57
2022-11-29T02:21:00.090Z,0.72
2022-11-29T02:22:04.173Z,0.64
2022-11-29T02:23:21.349Z,0.49
2022-11-29T02:24:32.876Z,0.59
2022-11-29T02:26:19.842Z,0.53
2022-11-29T02:27:33.078Z,0.61
2022-11-29T02:29:01.507Z,0.67
2022-11-29T02:30:24.417Z,0.82
2022-11-29T02:31:58.439Z,0.51
2022-11-29T02:33:12.479Z,0.41
2022-11-29T02:34:32.868Z,0.49
2022-11-29T02:35:54.471Z,0.45
2022-11-29T02:37:11.704Z,0.65
2022-11-29T02:38:23.713Z,0.53
2022-11-29T02:39:27.895Z,0.59
2022-11-29T02:40:36.376Z,0.36
2022-11-29T02:41:55.107Z,0.55
2022-11-29T02:43:22.616Z,0.57
2022-11-29T02:45:00.642Z,0.62
2022-11-29T02:46:27.867Z,0.41
2022-11-29T02:47:45.446Z,0.46
2022-11-29T02:49:17.600Z,0.58
2022-11-29T02:50:22.864Z,0.49
2022-11-29T02:51:52.019Z,0.21
2022-11-29T02:53:04.076Z,0.24
2022-11-29T02:54:25.891Z,0.18
2022-11-29T02:55:34.741Z,0.56
2022-11-29T02:56:34.010Z,0.51
2022-11-29T02:58:08.831Z,0.63
2022-11-29T02:59:14.155Z,0.55
2022-11-29T03:00:16.119Z,0.44
2022-11-29T03:01:33.559Z,0.31
2022-11-29T03:02:48.226Z,0.45
2022-11-29T03:03:54.249Z,0.53
2022-11-29T03:05:03.400Z,0.68
2022-11-29T03:06:15.160Z,0.56
2022-11-29T03:07:24.106Z,0.59
2022-11-29T03:08:59.301Z,0.67
2022-11-29T03:09:58.556Z,0.64
2022-11-29T03:11:13.021Z,0.53
2022-11-29T03:12:16.586Z,-0.14
2022-11-29T03:13:58.001Z,0.48
2022-11-29T03:15:07.811Z,0.53
2022-11-29T03:16:26.359Z,0.27
2022-11-29T03:17:40.130Z,0.33
2022-11-29T03:18:50.835Z,0.74
2022-11-29T03:20:12.426Z,0.81
2022-11-29T03:21:09.025Z,0.57
2022-11-29T03:22:15.139Z,0.52
2022-11-29T03:23:19.942Z,0.67
2022-11-29T03:24:25.911Z,0.80
2022-11-29T03:26:05.110Z,0.52
2022-11-29T03:27:11.957Z,0.62
2022-11-29T03:28:24.176Z,0.78
2022-11-29T03:29:29.635Z,0.69
2022-11-29T03:30:26.382Z,0.73
2022-11-29T03:31:34.493Z,0.69
2022-11-29T03:33:09.187Z,0.74
2022-11-29T03:34:25.829Z,1.01
2022-11-29T03:35:43.893Z,0.82
2022-11-29T03:36:56.063Z,0.89
2022-11-29T03:38:24.824Z,0.98
2022-11-29T03:39:55.772Z,0.89
2022-11-29T03:41:04.507Z,0.94
2022-11-29T03:42:05.923Z,1.03
2022-11-29T03:43:10.194Z,0.87
2022-11-29T03:44:16.030Z,0.84
2022-11-29T03:45:32.787Z,0.96
2022-11-29T03:46:33.515Z,0.95
2022-11-29T03:47:45.003Z,0.89
2022-11-29T03:48:57.672Z,0.83
2022-11-29T03:50:11.322Z,0.75
2022-11-29T03:51:16.327Z,0.90
2022-11-29T03:52:26.649Z,0.86
2022-11-29T03:53:46.438Z,0.83
2022-11-29T03:54:48.784Z,0.81
2022-11-29T03:55:51.466Z,0.87
2022-11-29T03:56:48.415Z,1.02
2022-11-29T03:57:54.164Z,1.17
2022-11-29T03:59:14.483Z,0.96
2022-11-29T04:00:13.275Z,1.19
2022-11-29T04:01:21.699Z,0.98
2022-11-29T04:02:28.519Z,1.05
2022-11-29T04:03:40.089Z,0.89
2022-11-29T04:05:14.431Z,1.05
2022-11-29T04:06:19.941Z,1.12
2022-11-29T04:07:48.135Z,1.09
2022-11-29T04:09:09.770Z,0.84
2022-11-29T04:10:16.508Z,0.90
2022-11-29T04:11:54.853Z,0.84
2022-11-29T04:12:57.626Z,1.18
2022-11-29T04:14:27.796Z,1.24
2022-11-29T04:15:44.632Z,0.97
2022-11-29T04:17:06.538Z,0.96
2022-11-29T04:18:31.054Z,1.07
2022-11-29T04:19:33.424Z,0.96
2022-11-29T04:20:31.310Z,1.04
2022-11-29T04:22:00.060Z,0.93
2022-11-29T04:23:18.781Z,1.07
2022-11-29T04:24:51.695Z,1.16
2022-11-29T04:26:16.164Z,1.15
2022-11-29T04:27:27.183Z,1.30
2022-11-29T04:28:23.723Z,1.16
2022-11-29T04:29:39.503Z,0.82
2022-11-29T04:30:56.778Z,1.18
2022-11-29T04:32:10.574Z,0.96
2022-11-29T04:33:19.248Z,0.90
2022-11-29T04:34:37.869Z,0.88
2022-11-29T04:35:55.552Z,0.97
2022-11-29T04:37:16.754Z,0.90
2022-11-29T04:38:34.600Z,1.01
2022-11-29T04:40:08.841Z,0.81
2022-11-29T04:41:14.638Z,0.93
2022-11-29T04:42:11.150Z,0.97
2022-11-29T04:43:26.150Z,1.07
2022-11-29T04:44:47.882Z,0.99
2022-11-29T04:46:25.837Z,1.05
2022-11-29T04:47:49.693Z,0.86
2022-11-29T04:49:01.959Z,0.83
2022-11-29T04:50:10.386Z,0.93
2022-11-29T04:52:00.918Z,1.02
2022-11-29T04:53:00.268Z,0.98
2022-11-29T04:54:26.391Z,0.92
2022-11-29T04:55:52.360Z,1.15
2022-11-29T04:56:52.801Z,0.89
2022-11-29T04:57:58.425Z,0.44
2022-11-29T04:59:05.886Z,1.02
2022-11-29T05:00:15.710Z,0.99
2022-11-29T05:01:18.159Z,0.86
2022-11-29T05:02:41.101Z,0.89
2022-11-29T05:03:53.831Z,0.70
2022-11-29T05:05:14.776Z,0.90
2022-11-29T05:06:32.802Z,0.76
2022-11-29T05:07:35.059Z,0.74
2022-11-29T05:09:01.343Z,0.70
2022-11-29T05:10:24.566Z,0.71
2022-11-29T05:11:43.461Z,0.19
2022-11-29T05:13:00.848Z,0.51
2022-11-29T05:14:20.643Z,0.50
2022-11-29T05:16:02.607Z,0.69
2022-11-29T05:17:24.040Z,0.67
2022-11-29T05:18:56.560Z,0.37
2022-11-29T05:20:16.772Z,0.61
2022-11-29T05:21:44.560Z,0.39
2022-11-29T05:23:29.431Z,0.67
2022-11-29T05:24:44.358Z,0.59
2022-11-29T05:26:05.902Z,0.80
2022-11-29T05:27:25.763Z,0.89
2022-11-29T05:28:43.849Z,0.78
2022-11-29T05:30:04.300Z,0.89
2022-11-29T05:31:30.677Z,0.82
2022-11-29T05:32:34.951Z,0.55
2022-11-29T05:33:56.109Z,1.00
2022-11-29T05:35:29.748Z,0.98
2022-11-29T05:36:45.002Z,0.92
2022-11-29T05:38:07.393Z,0.53
2022-11-29T05:39:34.935Z,0.95
2022-11-29T05:41:07.004Z,0.78
2022-11-29T05:42:31.238Z,0.89
2022-11-29T05:44:05.111Z,0.82
2022-11-29T05:45:10.209Z,0.93
2022-11-29T05:46:22.715Z,1.04
2022-11-29T05:47:31.450Z,1.00
2022-11-29T05:49:00.686Z,0.99
2022-11-29T05:50:10.375Z,1.21
2022-11-29T05:51:09.975Z,1.02
2022-11-29T05:52:37.899Z,1.10
2022-11-29T05:53:51.472Z,1.11
2022-11-29T05:55:13.910Z,1.04
2022-11-29T05:56:23.639Z,1.30
2022-11-29T05:57:44.936Z,1.30
2022-11-29T05:58:41.541Z,1.39
2022-11-29T05:59:39.442Z,1.27
2022-11-29T06:01:09.575Z,1.15
2022-11-29T06:02:28.092Z,1.49
2022-11-29T06:03:53.695Z,1.35
2022-11-29T06:04:56.044Z,1.31
2022-11-29T06:06:00.777Z,1.23
2022-11-29T06:07:26.278Z,1.58
2022-11-29T06:08:34.219Z,1.57
2022-11-29T06:09:42.780Z,1.39
2022-11-29T06:10:44.634Z,1.64
2022-11-29T06:11:50.157Z,1.48
2022-11-29T06:13:08.472Z,1.67
2022-11-29T06:14:08.083Z,1.73
2022-11-29T06:15:13.761Z,1.47
2022-11-29T06:16:19.252Z,1.44
2022-11-29T06:17:53.490Z,1.45
2022-11-29T06:19:03.203Z,1.58
2022-11-29T06:20:13.173Z,1.64
2022-11-29T06:21:18.707Z,1.52
2022-11-29T06:22:52.771Z,1.60
2022-11-29T06:24:36.043Z,1.57
2022-11-29T06:26:09.687Z,1.62
2022-11-29T06:27:09.335Z,1.65
2022-11-29T06:28:30.472Z,1.57
2022-11-29T06:29:43.018Z,1.11
2022-11-29T06:31:15.239Z,1.73
2022-11-29T06:32:42.272Z,1.42
2022-11-29T06:34:01.928Z,1.69
2022-11-29T06:35:07.233Z,1.56
2022-11-29T06:36:18.852Z,1.70
2022-11-29T06:37:21.569Z,1.83
2022-11-29T06:38:22.999Z,1.86
2022-11-29T06:39:19.820Z,1.46
2022-11-29T06:40:17.156Z,1.68
2022-11-29T06:41:19.196Z,1.67
2022-11-29T06:42:16.061Z,1.80
2022-11-29T06:43:13.169Z,2.03
2022-11-29T06:44:11.023Z,1.74
2022-11-29T06:45:10.541Z,1.79
2022-11-29T06:46:48.521Z,1.82
2022-11-29T06:47:52.795Z,1.89
2022-11-29T06:49:02.600Z,1.60
2022-11-29T06:50:24.205Z,1.90
2022-11-29T06:51:59.410Z,1.84
2022-11-29T06:53:33.395Z,1.92
2022-11-29T06:54:36.005Z,1.96
2022-11-29T06:55:57.580Z,1.97
2022-11-29T06:57:00.146Z,1.98
2022-11-29T06:58:05.559Z,2.15
2022-11-29T06:59:52.764Z,2.26
2022-11-29T07:01:01.924Z,2.12
2022-11-29T07:02:25.843Z,2.35
2022-11-29T07:03:40.475Z,2.67
2022-11-29T07:04:46.535Z,2.33
2022-11-29T07:05:43.687Z,2.19
2022-11-29T07:06:40.661Z,2.45
2022-11-29T07:07:37.587Z,2.09
2022-11-29T07:08:34.533Z,2.28
2022-11-29T07:09:34.652Z,2.22
2022-11-29T07:10:34.682Z,2.40
2022-11-29T07:11:31.911Z,2.52
2022-11-29T07:12:28.913Z,1.94
2022-11-29T07:13:25.720Z,2.22
2022-11-29T07:14:22.700Z,2.32
2022-11-29T07:15:22.205Z,2.14
2022-11-29T07:16:34.177Z,2.08
2022-11-29T07:17:40.041Z,2.05
2022-11-29T07:18:58.363Z,2.25
2022-11-29T07:20:10.242Z,2.18
2022-11-29T07:21:28.543Z,2.37
2022-11-29T07:22:55.547Z,2.46
2022-11-29T07:23:59.830Z,2.25
2022-11-29T07:25:30.529Z,2.19
2022-11-29T07:27:15.713Z,2.48
2022-11-29T07:28:37.423Z,2.81
2022-11-29T07:30:02.964Z,2.70
2022-11-29T07:31:10.628Z,2.53
2022-11-29T07:32:10.036Z,2.52
2022-11-29T07:33:23.912Z,2.71
2022-11-29T07:34:23.236Z,2.78
2022-11-29T07:35:30.987Z,2.91
2022-11-29T07:36:37.547Z,3.01
2022-11-29T07:37:48.272Z,2.67
2022-11-29T07:39:18.323Z,2.90
2022-11-29T07:40:34.434Z,3.25
2022-11-29T07:41:43.434Z,3.32
2022-11-29T07:43:24.477Z,3.46
2022-11-29T07:44:26.310Z,3.42
2022-11-29T07:45:25.674Z,3.28
2022-11-29T07:46:22.395Z,3.00
2022-11-29T07:47:19.065Z,2.87
2022-11-29T07:48:16.925Z,2.90
2022-11-29T07:49:13.656Z,2.59
2022-11-29T07:50:13.956Z,3.05
2022-11-29T07:51:10.869Z,3.14
2022-11-29T07:52:11.953Z,3.25
2022-11-29T07:53:15.756Z,3.16
2022-11-29T07:54:17.478Z,2.90
2022-11-29T07:55:19.863Z,3.25
2022-11-29T07:56:16.439Z,3.29
2022-11-29T07:57:13.013Z,3.30
2022-11-29T07:58:13.686Z,3.19
2022-11-29T07:59:13.027Z,3.07
2022-11-29T08:00:10.791Z,2.83
2022-11-29T08:01:07.517Z,2.89
2022-11-29T08:02:10.168Z,2.71
2022-11-29T08:03:09.126Z,3.18
2022-11-29T08:04:06.494Z,2.63
2022-11-29T08:05:04.012Z,2.24
2022-11-29T08:06:00.599Z,2.93
2022-11-29T08:07:00.907Z,3.17
2022-11-29T08:07:57.658Z,3.34
2022-11-29T08:08:57.472Z,3.23
2022-11-29T08:09:54.159Z,3.31
2022-11-29T08:10:50.744Z,3.31
2022-11-29T08:11:48.845Z,3.01
2022-11-29T08:12:48.676Z,3.41
2022-11-29T08:13:45.251Z,3.44
2022-11-29T08:14:41.939Z,3.67
2022-11-29T08:15:44.234Z,3.77
2022-11-29T08:16:40.937Z,3.64
2022-11-29T08:17:38.777Z,3.53
2022-11-29T08:18:38.160Z,3.47
2022-11-29T08:19:34.764Z,3.41
2022-11-29T08:20:31.406Z,3.29
2022-11-29T08:21:28.333Z,3.21
2022-11-29T08:22:24.942Z,3.03
2022-11-29T08:23:21.548Z,2.64
2022-11-29T08:24:18.120Z,2.97
2022-11-29T08:25:14.730Z,3.26
2022-11-29T08:26:12.021Z,3.18
2022-11-29T08:27:08.597Z,2.65
2022-11-29T08:28:06.080Z,2.83
2022-11-29T08:29:02.719Z,3.26
2022-11-29T08:29:59.651Z,3.21
2022-11-29T08:31:04.584Z,3.06
2022-11-29T08:32:01.546Z,2.73
2022-11-29T08:32:58.460Z,2.64
2022-11-29T08:33:55.034Z,2.73
2022-11-29T08:34:51.685Z,2.71
2022-11-29T08:35:48.262Z,3.05
2022-11-29T08:36:44.883Z,3.33
2022-11-29T08:37:41.780Z,3.06
2022-11-29T08:38:38.516Z,3.04
2022-11-29T08:39:35.179Z,2.97
2022-11-29T08:40:31.794Z,3.15
2022-11-29T08:41:29.248Z,2.83
2022-11-29T08:42:26.081Z,2.78
2022-11-29T08:43:22.727Z,2.84
2022-11-29T08:44:19.462Z,2.83
2022-11-29T08:45:16.032Z,2.82
2022-11-29T08:46:18.299Z,2.68
2022-11-29T08:47:33.858Z,2.90
2022-11-29T08:48:30.671Z,3.07
2022-11-29T08:49:27.379Z,2.85
2022-11-29T08:50:24.618Z,3.07
2022-11-29T08:51:21.214Z,3.18
2022-11-29T08:52:36.193Z,3.06
2022-11-29T08:53:42.016Z,2.90
2022-11-29T08:54:38.729Z,3.23
2022-11-29T08:55:43.074Z,3.18
2022-11-29T08:58:02.512Z,2.91
2022-11-29T08:58:59.088Z,3.05
2022-11-29T08:59:55.724Z,3.08
2022-11-29T09:00:52.765Z,2.81
2022-11-29T09:01:49.436Z,2.97
2022-11-29T09:02:46.089Z,2.95
2022-11-29T09:04:02.603Z,3.17
2022-11-29T09:04:59.248Z,3.06
2022-11-29T09:05:55.964Z,3.17
2022-11-29T09:06:52.585Z,2.92
2022-11-29T09:07:49.267Z,2.80
2022-11-29T09:08:46.038Z,3.02
2022-11-29T09:09:42.639Z,2.65
2022-11-29T09:10:42.976Z,2.90
2022-11-29T09:11:39.598Z,2.81
2022-11-29T09:12:37.134Z,3.10
2022-11-29T09:13:33.682Z,3.15
2022-11-29T09:14:30.848Z,3.15
2022-11-29T09:15:27.456Z,3.24
2022-11-29T09:16:29.051Z,3.15
2022-11-29T09:17:25.769Z,3.08
2022-11-29T09:18:22.768Z,2.93
2022-11-29T09:19:19.580Z,3.20
2022-11-29T09:20:16.349Z,3.11
2022-11-29T09:21:14.851Z,2.90
2022-11-29T09:22:11.467Z,2.85
2022-11-29T09:23:08.060Z,2.69
2022-11-29T09:24:06.559Z,2.57
2022-11-29T09:25:03.328Z,2.82
2022-11-29T09:26:00.010Z,3.14
2022-11-29T09:26:56.665Z,3.10
2022-11-29T09:27:54.533Z,2.86
2022-11-29T09:28:51.172Z,3.03
2022-11-29T09:29:47.763Z,3.01
2022-11-29T09:30:44.452Z,3.02
2022-11-29T09:31:42.362Z,2.84
2022-11-29T09:32:38.969Z,2.79
2022-11-29T09:33:35.982Z,2.85
2022-11-29T09:34:32.693Z,2.64
2022-11-29T09:35:29.778Z,2.75
2022-11-29T09:36:29.135Z,2.94
2022-11-29T09:37:26.074Z,2.88
2022-11-29T09:38:22.695Z,2.62
2022-11-29T09:39:19.340Z,2.73
2022-11-29T09:40:19.566Z,2.63
2022-11-29T09:41:16.118Z,2.54
2022-11-29T09:42:50.103Z,2.86
2022-11-29T09:44:01.120Z,3.16
2022-11-29T09:45:10.935Z,2.96
2022-11-29T09:46:22.721Z,2.87
2022-11-29T09:47:26.441Z,3.23
2022-11-29T09:48:44.158Z,3.02
2022-11-29T09:50:02.433Z,2.83
2022-11-29T09:51:19.715Z,3.07
2022-11-29T09:52:41.683Z,3.19
2022-11-29T09:54:02.978Z,2.87
2022-11-29T09:55:24.164Z,2.75
2022-11-29T09:56:38.388Z,2.71
2022-11-29T09:57:35.319Z,2.89
2022-11-29T09:58:40.649Z,2.98
2022-11-29T09:59:46.126Z,3.03
2022-11-29T10:00:50.803Z,2.66
2022-11-29T10:01:54.006Z,2.85
2022-11-29T10:02:55.126Z,2.58
2022-11-29T10:04:12.038Z,2.36
2022-11-29T10:05:12.097Z,2.20
2022-11-29T10:06:19.382Z,2.75
2022-11-29T10:07:30.221Z,2.90
2022-11-29T10:08:41.982Z,3.01
2022-11-29T10:09:47.866Z,3.16
2022-11-29T10:10:49.861Z,2.48
2022-11-29T10:11:55.694Z,2.89
2022-11-29T10:13:16.003Z,2.87
2022-11-29T10:14:18.059Z,2.89
2022-11-29T10:15:23.848Z,2.88
2022-11-29T10:16:38.998Z,2.99
2022-11-29T10:18:19.112Z,2.86
2022-11-29T10:19:18.259Z,2.74
2022-11-29T10:20:24.720Z,2.72
2022-11-29T10:21:26.444Z,2.84
2022-11-29T10:22:31.376Z,2.63
2022-11-29T10:23:35.179Z,2.92
2022-11-29T10:24:33.872Z,2.80
2022-11-29T10:25:45.244Z,2.86
2022-11-29T10:26:43.509Z,2.83
2022-11-29T10:27:40.789Z,2.82
2022-11-29T10:28:37.815Z,2.97
2022-11-29T10:29:34.462Z,2.85
2022-11-29T10:30:34.843Z,3.07
2022-11-29T10:31:43.354Z,3.02
2022-11-29T10:32:40.352Z,2.99
2022-11-29T10:33:40.597Z,3.12
2022-11-29T10:34:37.624Z,3.20
2022-11-29T10:35:34.255Z,3.10
2022-11-29T10:36:39.976Z,2.80
2022-11-29T10:37:36.708Z,2.87
2022-11-29T10:38:33.452Z,2.53
2022-11-29T10:39:48.483Z,2.96
2022-11-29T10:40:49.411Z,2.97
2022-11-29T10:41:46.777Z,3.11
2022-11-29T10:42:49.940Z,3.17
2022-11-29T10:43:47.586Z,3.49
2022-11-29T10:44:44.494Z,3.56
2022-11-29T10:45:50.716Z,3.10
2022-11-29T10:46:47.590Z,3.55
2022-11-29T10:47:47.691Z,3.65
2022-11-29T10:48:44.572Z,3.95
2022-11-29T10:49:41.295Z,3.95
2022-11-29T10:50:42.781Z,3.68
2022-11-29T10:51:39.504Z,3.48
2022-11-29T10:52:36.124Z,3.61
2022-11-29T10:53:37.320Z,3.29
2022-11-29T10:54:44.643Z,3.73
2022-11-29T10:55:50.641Z,3.77
2022-11-29T10:56:48.424Z,3.99
2022-11-29T10:58:11.685Z,3.83
2022-11-29T10:59:20.431Z,3.96
2022-11-29T11:00:17.308Z,4.05
2022-11-29T11:01:16.085Z,3.12
2022-11-29T11:02:20.164Z,3.61
2022-11-29T11:03:40.203Z,3.57
2022-11-29T11:04:44.658Z,4.08
2022-11-29T11:05:41.557Z,4.12
2022-11-29T11:06:48.471Z,4.10
2022-11-29T11:07:47.521Z,3.91
2022-11-29T11:08:47.893Z,4.04
2022-11-29T11:09:49.735Z,3.91
2022-11-29T11:10:58.601Z,3.89
2022-11-29T11:12:00.861Z,4.23
2022-11-29T11:13:06.877Z,4.07
2022-11-29T11:14:17.320Z,4.29
2022-11-29T11:15:31.588Z,3.77
2022-11-29T11:16:31.667Z,3.90
2022-11-29T11:17:37.653Z,3.88
2022-11-29T11:18:34.327Z,4.07
2022-11-29T11:19:35.047Z,3.73
2022-11-29T11:20:33.488Z,3.90
2022-11-29T11:21:31.411Z,3.77
2022-11-29T11:22:29.681Z,3.53
2022-11-29T11:23:36.457Z,3.43
2022-11-29T11:24:41.145Z,3.73
2022-11-29T11:25:39.547Z,3.45
2022-11-29T11:26:43.717Z,3.74
2022-11-29T11:27:40.487Z,2.91
2022-11-29T11:28:48.091Z,3.65
2022-11-29T11:29:45.259Z,3.88
2022-11-29T11:30:51.483Z,3.87
2022-11-29T11:31:55.571Z,3.57
2022-11-29T11:33:22.117Z,3.62
2022-11-29T11:34:27.805Z,3.53
2022-11-29T11:35:24.423Z,3.31
2022-11-29T11:36:20.977Z,3.14
2022-11-29T11:37:23.765Z,3.31
2022-11-29T11:38:21.124Z,3.52
2022-11-29T11:39:22.848Z,3.52
2022-11-29T11:40:30.838Z,3.58
2022-11-29T11:41:49.923Z,3.68
2022-11-29T11:42:46.943Z,3.76
2022-11-29T11:43:52.069Z,3.86
2022-11-29T11:44:52.504Z,4.09
2022-11-29T11:45:53.624Z,3.96
2022-11-29T11:46:51.449Z,3.86
2022-11-29T11:47:53.811Z,3.60
2022-11-29T11:48:51.397Z,3.27
2022-11-29T11:50:07.218Z,3.59
2022-11-29T11:51:03.912Z,3.53
2022-11-29T11:52:01.773Z,3.54
2022-11-29T11:53:03.945Z,3.65
2022-11-29T11:54:00.545Z,3.82
2022-11-29T11:55:07.365Z,3.45
2022-11-29T11:56:09.870Z,3.80
2022-11-29T11:57:15.982Z,3.76
2022-11-29T11:58:12.499Z,3.92
2022-11-29T11:59:20.445Z,3.64
2022-11-29T12:01:02.241Z,3.68
2022-11-29T12:01:55.590Z,3.25
2022-11-29T12:02:52.303Z,3.19
2022-11-29T12:04:27.604Z,3.39
2022-11-29T12:05:24.473Z,3.65
2022-11-29T12:06:46.522Z,3.77
2022-11-29T12:08:10.825Z,3.78
2022-11-29T12:09:44.596Z,3.59
2022-11-29T12:10:41.829Z,3.53
2022-11-29T12:12:10.646Z,3.50
2022-11-29T12:13:18.224Z,3.42
2022-11-29T12:14:28.309Z,3.86
2022-11-29T12:15:41.549Z,3.82
2022-11-29T12:16:40.515Z,3.43
2022-11-29T12:18:12.315Z,3.41
2022-11-29T12:19:23.140Z,3.39
2022-11-29T12:20:28.317Z,3.52
2022-11-29T12:21:32.029Z,3.73
2022-11-29T12:22:37.832Z,3.60
2022-11-29T12:23:42.156Z,3.77
2022-11-29T12:24:46.985Z,3.54
2022-11-29T12:26:00.136Z,3.31
2022-11-29T12:27:00.715Z,3.32
2022-11-29T12:27:57.862Z,2.92
2022-11-29T12:28:54.737Z,3.51
2022-11-29T12:29:51.428Z,3.53
2022-11-29T12:31:00.191Z,3.28
2022-11-29T12:32:12.330Z,3.68
2022-11-29T12:33:27.189Z,3.67
2022-11-29T12:34:58.818Z,3.24
2022-11-29T12:36:00.940Z,3.58
2022-11-29T12:37:15.787Z,3.58
2022-11-29T12:38:37.145Z,3.50
2022-11-29T12:39:50.825Z,3.18
2022-11-29T12:41:24.921Z,3.37
2022-11-29T12:42:48.714Z,3.38
2022-11-29T12:44:13.163Z,3.11
2022-11-29T12:45:44.184Z,3.15
2022-11-29T12:46:48.009Z,3.22
2022-11-29T12:48:32.889Z,3.06
2022-11-29T12:50:11.561Z,2.98
2022-11-29T12:51:08.236Z,2.98
2022-11-29T12:52:20.493Z,3.08
2022-11-29T12:53:36.998Z,3.38
2022-11-29T12:54:45.871Z,3.09
2022-11-29T12:55:45.291Z,2.89
2022-11-29T12:56:44.867Z,2.90
2022-11-29T12:57:47.996Z,3.14
2022-11-29T12:58:46.183Z,3.07
2022-11-29T13:00:02.724Z,2.68
2022-11-29T13:01:42.746Z,3.22
2022-11-29T13:02:55.511Z,3.30
2022-11-29T13:04:29.314Z,2.96
2022-11-29T13:06:03.535Z,2.95
2022-11-29T13:07:18.311Z,2.94
2022-11-29T13:08:17.777Z,2.90
2022-11-29T13:09:45.599Z,2.98
2022-11-29T13:10:54.407Z,3.10
2022-11-29T13:12:01.960Z,2.84
2022-11-29T13:13:19.058Z,3.05
2022-11-29T13:14:42.559Z,2.92
2022-11-29T13:16:09.166Z,3.11
2022-11-29T13:17:27.000Z,3.24
2022-11-29T13:18:31.809Z,2.82
2022-11-29T13:19:43.511Z,2.96
2022-11-29T13:20:52.382Z,3.15
2022-11-29T13:22:07.252Z,3.27
2022-11-29T13:23:46.058Z,3.24
2022-11-29T13:24:52.435Z,3.08
2022-11-29T13:25:52.463Z,2.73
2022-11-29T13:26:50.154Z,3.05
2022-11-29T13:28:25.356Z,2.94
2022-11-29T13:29:22.663Z,2.76
2022-11-29T13:30:19.369Z,3.05
2022-11-29T13:31:19.806Z,3.05
2022-11-29T13:32:35.265Z,3.05
2022-11-29T13:34:16.904Z,3.15
2022-11-29T13:35:41.846Z,2.84
2022-11-29T13:36:45.792Z,2.88
2022-11-29T13:37:54.799Z,3.03
2022-11-29T13:39:10.604Z,2.85
2022-11-29T13:40:37.783Z,3.00
2022-11-29T13:42:05.076Z,2.97
2022-11-29T13:43:47.951Z,2.84
2022-11-29T13:44:54.674Z,3.06
2022-11-29T13:45:51.283Z,3.03
2022-11-29T13:46:58.233Z,2.95
2022-11-29T13:47:58.610Z,2.91
2022-11-29T13:48:55.483Z,3.03
2022-11-29T13:50:38.883Z,2.99
2022-11-29T13:51:38.101Z,3.18
2022-11-29T13:52:37.982Z,3.03
2022-11-29T13:53:48.765Z,2.81
2022-11-29T13:54:46.087Z,2.48
2022-11-29T13:56:00.958Z,3.01
2022-11-29T13:57:09.482Z,3.27
2022-11-29T13:58:23.081Z,3.43
2022-11-29T13:59:28.351Z,3.13
2022-11-29T14:00:30.884Z,3.01
2022-11-29T14:01:28.314Z,3.01
2022-11-29T14:02:30.479Z,2.88
2022-11-29T14:04:00.757Z,2.90
2022-11-29T14:04:57.516Z,3.23
2022-11-29T14:06:13.537Z,2.54
2022-11-29T14:07:19.713Z,2.71
2022-11-29T14:09:10.385Z,3.01
2022-11-29T14:10:28.679Z,2.81
2022-11-29T14:11:34.086Z,2.77
2022-11-29T14:12:39.346Z,2.93
2022-11-29T14:13:49.122Z,3.06
2022-11-29T14:14:54.673Z,2.80
2022-11-29T14:15:58.590Z,2.69
2022-11-29T14:17:03.593Z,2.62
2022-11-29T14:18:03.333Z,2.93
2022-11-29T14:19:30.104Z,2.86
2022-11-29T14:20:29.602Z,2.99
2022-11-29T14:21:26.230Z,2.84
2022-11-29T14:22:23.011Z,2.92
2022-11-29T14:23:35.066Z,3.05
2022-11-29T14:24:37.207Z,2.99
2022-11-29T14:26:09.787Z,2.68
2022-11-29T14:27:06.391Z,2.86
2022-11-29T14:28:14.929Z,2.84
2022-11-29T14:29:54.018Z,2.88
2022-11-29T14:30:52.896Z,2.67
2022-11-29T14:31:51.923Z,2.68
2022-11-29T14:33:20.003Z,2.65
2022-11-29T14:34:23.345Z,2.43
2022-11-29T14:35:45.947Z,2.95
2022-11-29T14:37:14.533Z,2.64
2022-11-29T14:38:40.972Z,2.92
2022-11-29T14:39:44.585Z,3.04
2022-11-29T14:40:41.374Z,2.94
2022-11-29T14:42:01.886Z,2.76
2022-11-29T14:42:59.929Z,2.81
2022-11-29T14:44:28.222Z,2.63
2022-11-29T14:45:34.834Z,2.52
2022-11-29T14:46:33.192Z,2.77
2022-11-29T14:47:35.399Z,2.55
2022-11-29T14:48:33.621Z,2.23
2022-11-29T14:49:31.857Z,2.30
2022-11-29T14:50:40.278Z,2.54
2022-11-29T14:51:37.454Z,2.50
2022-11-29T14:52:38.739Z,2.15
2022-11-29T14:53:37.836Z,2.48
2022-11-29T14:54:35.891Z,2.53
2022-11-29T14:55:37.016Z,2.55
2022-11-29T14:56:38.887Z,2.59
2022-11-29T14:57:50.517Z,2.67